Time,TemperatureF,DewpointF,PressureIn,WindDirection,WindDirectionDegrees,WindSpeedMPH,WindSpeedGustMPH,Humidity,HourlyPrecipIn,Conditions,Clouds,dailyrainin,SolarRadiationWatts/m^2,SoftwareType,DateUTC
2013-04-07 13:46:00,62.4,52.2,30.04,SW,225,6.0,6.0,69,-99.99,,,0.01,786.0,meteohub,2013-04-07 20:46:00,
2013-04-07 13:47:00,62.4,52.2,30.04,South,185,1.0,-999.0,69,-99.99,,,0.01,786.0,meteohub,2013-04-07 20:47:00,
2013-04-07 13:51:00,63.0,53.1,30.04,SW,234,12.0,-999.0,70,-99.99,,,0.02,731.0,meteohub,2013-04-07 20:51:00,
2013-04-07 13:57:00,62.4,51.8,30.03,SW,227,14.0,18.0,68,0.00,,,0.02,738.0,meteohub,2013-04-07 20:57:00,
2013-04-07 14:02:00,61.9,51.6,30.03,West,260,5.0,18.0,69,0.00,,,0.02,860.0,meteohub,2013-04-07 21:02:00,
2013-04-07 14:07:00,62.4,52.2,30.03,South,169,3.0,18.0,69,0.00,,,0.02,904.0,meteohub,2013-04-07 21:07:00,
2013-04-07 14:12:00,62.8,52.0,30.02,South,190,6.0,15.0,68,0.00,,,0.02,853.0,meteohub,2013-04-07 21:12:00,
2013-04-07 14:17:00,62.6,51.4,30.03,SW,236,8.0,14.0,67,0.00,,,0.02,877.0,meteohub,2013-04-07 21:17:00,
2013-04-07 14:22:00,63.0,51.8,30.03,WSW,246,4.0,14.0,67,0.00,,,0.02,846.0,meteohub,2013-04-07 21:22:00,
2013-04-07 14:29:00,62.2,51.1,30.03,West,269,3.0,16.0,67,0.00,,,0.02,336.0,meteohub,2013-04-07 21:29:00,
2013-04-07 14:35:00,62.2,51.1,30.03,SW,235,5.0,16.0,67,0.00,,,0.02,318.0,meteohub,2013-04-07 21:35:00,
2013-04-07 14:41:00,62.1,51.4,30.02,SSE,165,9.0,14.0,68,0.00,,,0.02,826.0,meteohub,2013-04-07 21:41:00,
2013-04-07 14:47:00,62.4,50.9,30.02,WSW,244,5.0,16.0,66,0.00,,,0.02,765.0,meteohub,2013-04-07 21:47:00,
2013-04-07 14:52:00,62.8,50.9,30.02,SSW,197,2.0,16.0,65,0.00,,,0.02,657.0,meteohub,2013-04-07 21:52:00,
2013-04-07 14:58:00,62.2,50.4,30.02,SW,217,2.0,16.0,65,0.00,,,0.02,568.0,meteohub,2013-04-07 21:58:00,
2013-04-07 15:04:00,61.9,50.0,30.01,WSW,244,5.0,14.0,65,0.00,,,0.02,582.0,meteohub,2013-04-07 22:04:00,
2013-04-07 15:11:00,61.3,49.8,30.01,SW,236,9.0,14.0,66,0.00,,,0.02,524.0,meteohub,2013-04-07 22:11:00,
2013-04-07 15:17:00,61.2,50.2,30.01,WSW,238,4.0,16.0,67,0.00,,,0.02,578.0,meteohub,2013-04-07 22:17:00,
2013-04-07 15:22:00,61.0,49.5,30.02,SSW,204,6.0,16.0,66,0.00,,,0.02,515.0,meteohub,2013-04-07 22:22:00,
2013-04-07 15:29:00,60.4,49.1,30.02,SSW,199,2.0,13.0,66,0.00,,,0.02,350.0,meteohub,2013-04-07 22:29:00,
2013-04-07 15:35:00,60.4,49.5,30.01,SSW,211,9.0,13.0,67,0.00,,,0.02,598.0,meteohub,2013-04-07 22:35:00,
2013-04-07 15:41:00,60.4,49.1,30.01,SSW,192,5.0,13.0,66,0.00,,,0.02,598.0,meteohub,2013-04-07 22:41:00,
2013-04-07 15:47:00,60.3,49.3,30.01,WSW,257,8.0,15.0,67,0.00,,,0.02,541.0,meteohub,2013-04-07 22:47:00,
2013-04-07 15:52:00,60.4,49.5,30.00,South,178,9.0,15.0,67,0.00,,,0.02,445.0,meteohub,2013-04-07 22:52:00,
2013-04-07 15:57:00,60.1,49.1,30.00,South,170,2.0,14.0,67,0.00,,,0.02,459.0,meteohub,2013-04-07 22:57:00,
2013-04-07 16:02:00,60.1,48.7,30.00,South,191,6.0,16.0,66,0.00,,,0.02,455.0,meteohub,2013-04-07 23:02:00,
2013-04-07 16:07:00,59.9,48.6,30.00,South,186,11.0,16.0,66,0.00,,,0.02,513.0,meteohub,2013-04-07 23:07:00,
2013-04-07 16:14:00,60.4,49.1,30.00,SSE,167,5.0,16.0,66,0.00,,,0.02,438.0,meteohub,2013-04-07 23:14:00,
2013-04-07 16:20:00,59.7,48.4,29.99,SSE,154,4.0,15.0,66,0.00,,,0.02,503.0,meteohub,2013-04-07 23:20:00,
2013-04-07 16:26:00,59.9,48.9,29.99,SW,227,11.0,12.0,67,0.00,,,0.02,452.0,meteohub,2013-04-07 23:26:00,
2013-04-07 16:32:00,59.7,48.4,30.00,South,184,9.0,14.0,66,0.00,,,0.02,501.0,meteohub,2013-04-07 23:32:00,
2013-04-07 16:37:00,59.5,47.8,29.99,South,169,9.0,14.0,65,0.00,,,0.02,436.0,meteohub,2013-04-07 23:37:00,
2013-04-07 16:42:00,59.7,48.4,29.99,SSW,202,9.0,13.0,66,0.00,,,0.02,473.0,meteohub,2013-04-07 23:42:00,
2013-04-07 16:47:00,59.5,48.2,29.99,SSW,195,3.0,13.0,66,0.00,,,0.02,452.0,meteohub,2013-04-07 23:47:00,
2013-04-07 16:52:00,59.4,48.4,29.99,SSW,208,4.0,12.0,67,0.00,,,0.02,376.0,meteohub,2013-04-07 23:52:00,
2013-04-07 16:57:00,59.4,48.0,29.99,SSW,210,5.0,12.0,66,0.00,,,0.02,390.0,meteohub,2013-04-07 23:57:00,
2013-04-07 17:04:00,59.2,48.6,29.99,SSW,206,6.0,12.0,68,0.00,,,0.02,346.0,meteohub,2013-04-08 00:04:00,
2013-04-07 17:10:00,58.8,47.5,29.99,SW,223,8.0,12.0,66,0.00,,,0.00,404.0,meteohub,2013-04-08 00:10:00,
2013-04-07 17:16:00,58.6,47.7,29.99,South,184,4.0,14.0,67,0.00,,,0.00,306.0,meteohub,2013-04-08 00:16:00,
2013-04-07 17:22:00,58.3,47.3,29.99,South,178,2.0,15.0,67,0.00,,,0.00,244.0,meteohub,2013-04-08 00:22:00,
2013-04-07 17:27:00,58.3,47.3,29.98,SSE,150,6.0,15.0,67,0.00,,,0.00,221.0,meteohub,2013-04-08 00:27:00,
2013-04-07 17:32:00,57.7,46.4,29.98,SE,142,6.0,15.0,66,0.00,,,0.00,176.0,meteohub,2013-04-08 00:32:00,
2013-04-07 17:38:00,57.0,46.6,29.98,South,181,1.0,14.0,68,0.00,,,0.00,153.0,meteohub,2013-04-08 00:38:00,
2013-04-07 17:44:00,56.5,46.4,29.97,SSE,157,3.0,13.0,69,0.00,,,0.00,153.0,meteohub,2013-04-08 00:44:00,
2013-04-07 17:50:00,55.9,46.2,29.97,SSE,159,5.0,13.0,70,0.00,,,0.00,172.0,meteohub,2013-04-08 00:50:00,
2013-04-07 17:56:00,55.9,46.2,29.97,SSW,195,1.0,13.0,70,0.00,,,0.00,141.0,meteohub,2013-04-08 00:56:00,
2013-04-07 18:02:00,55.8,46.0,29.97,ESE,119,2.0,11.0,70,0.00,,,0.00,128.0,meteohub,2013-04-08 01:02:00,
2013-04-07 18:07:00,55.8,46.9,29.97,South,179,7.0,11.0,72,0.00,,,0.00,127.0,meteohub,2013-04-08 01:07:00,
2013-04-07 18:12:00,55.6,46.8,29.96,SSW,193,5.0,11.0,72,0.00,,,0.00,118.0,meteohub,2013-04-08 01:12:00,
2013-04-07 18:17:00,55.2,45.7,29.97,SE,136,9.0,12.0,70,0.00,,,0.00,93.0,meteohub,2013-04-08 01:17:00,
2013-04-07 18:23:00,54.9,46.0,29.97,SSW,192,6.0,15.0,72,0.00,,,0.00,72.0,meteohub,2013-04-08 01:23:00,
2013-04-07 18:29:00,54.5,45.7,29.97,South,180,2.0,15.0,72,0.00,,,0.00,65.0,meteohub,2013-04-08 01:29:00,
2013-04-07 18:36:00,54.3,45.5,29.98,South,175,3.0,15.0,72,0.00,,,0.00,35.0,meteohub,2013-04-08 01:36:00,
2013-04-07 18:42:00,54.3,45.9,29.97,SSE,154,5.0,15.0,73,0.00,,,0.00,39.0,meteohub,2013-04-08 01:42:00,
2013-04-07 18:47:00,54.1,45.7,29.96,SSW,204,5.0,15.0,73,0.00,,,0.00,40.0,meteohub,2013-04-08 01:47:00,
2013-04-07 18:55:00,54.1,45.7,29.97,South,186,6.0,14.0,73,0.00,,,0.00,30.0,meteohub,2013-04-08 01:55:00,
2013-04-07 19:02:00,54.0,45.5,29.96,South,189,4.0,14.0,73,0.00,,,0.00,11.0,meteohub,2013-04-08 02:02:00,
2013-04-07 19:07:00,54.0,45.5,29.96,WSW,254,0.0,8.0,73,0.00,,,0.00,9.0,meteohub,2013-04-08 02:07:00,
2013-04-07 19:13:00,54.0,45.9,29.96,SSW,200,2.0,7.0,74,0.00,,,0.00,5.0,meteohub,2013-04-08 02:13:00,
2013-04-07 19:19:00,53.8,45.3,29.96,SSW,209,0.0,5.0,73,0.00,,,0.00,7.0,meteohub,2013-04-08 02:19:00,
2013-04-07 19:26:00,53.8,45.7,29.96,WSW,250,5.0,6.0,74,0.00,,,0.00,0.0,meteohub,2013-04-08 02:26:00,
2013-04-07 19:32:00,53.4,46.0,29.96,SSW,201,5.0,6.0,76,0.00,,,0.00,0.0,meteohub,2013-04-08 02:32:00,
2013-04-07 19:37:00,53.1,46.4,29.96,South,175,5.0,8.0,78,0.00,,,0.00,0.0,meteohub,2013-04-08 02:37:00,
2013-04-07 19:42:00,52.7,47.1,29.95,SSW,199,4.0,8.0,81,0.00,,,0.00,0.0,meteohub,2013-04-08 02:42:00,
2013-04-07 19:47:00,52.2,46.8,29.94,SW,214,0.0,8.0,82,0.00,,,0.01,0.0,meteohub,2013-04-08 02:47:00,
2013-04-07 19:52:00,51.6,46.6,29.94,SW,224,8.0,8.0,83,0.01,,,0.01,0.0,meteohub,2013-04-08 02:52:00,
2013-04-07 19:59:00,51.3,46.6,29.94,SW,225,2.0,9.0,84,0.01,,,0.01,0.0,meteohub,2013-04-08 02:59:00,
2013-04-07 20:07:00,51.3,46.9,29.94,SW,226,2.0,9.0,85,0.01,,,0.01,0.0,meteohub,2013-04-08 03:07:00,
2013-04-07 20:12:00,51.3,47.3,29.94,SSW,213,1.0,7.0,86,0.01,,,0.01,0.0,meteohub,2013-04-08 03:12:00,
2013-04-07 20:18:00,51.1,47.3,29.94,SSW,212,1.0,4.0,87,0.01,,,0.01,0.0,meteohub,2013-04-08 03:18:00,
2013-04-07 20:25:00,51.3,47.8,29.93,SSW,213,0.0,4.0,88,0.01,,,0.01,0.0,meteohub,2013-04-08 03:25:00,
2013-04-07 20:31:00,51.1,47.3,29.93,WSW,241,2.0,4.0,87,0.01,,,0.01,0.0,meteohub,2013-04-08 03:31:00,
2013-04-07 20:37:00,51.1,47.7,29.92,WSW,241,0.0,4.0,88,0.01,,,0.01,0.0,meteohub,2013-04-08 03:37:00,
2013-04-07 20:42:00,50.9,47.8,29.92,WSW,238,2.0,2.0,89,0.00,,,0.01,0.0,meteohub,2013-04-08 03:42:00,
2013-04-07 20:48:00,50.7,47.7,29.92,WSW,238,0.0,2.0,89,0.00,,,0.01,0.0,meteohub,2013-04-08 03:48:00,
2013-04-07 20:54:00,50.7,47.8,29.92,WSW,238,0.0,3.0,90,0.00,,,0.01,0.0,meteohub,2013-04-08 03:54:00,
2013-04-07 21:00:00,50.9,48.0,29.91,WSW,238,0.0,3.0,90,0.00,,,0.01,0.0,meteohub,2013-04-08 04:00:00,
2013-04-07 21:05:00,50.7,47.8,29.91,WSW,238,0.0,0.0,90,0.00,,,0.01,0.0,meteohub,2013-04-08 04:05:00,
2013-04-07 21:07:00,50.7,47.8,29.91,WSW,238,0.0,0.0,90,0.00,,,0.01,0.0,meteohub,2013-04-08 04:07:00,
2013-04-07 21:13:00,51.1,48.6,29.91,WSW,238,0.0,0.0,91,0.00,,,0.01,0.0,meteohub,2013-04-08 04:13:00,
2013-04-07 21:19:00,50.7,48.6,29.91,WSW,238,0.0,0.0,92,0.00,,,0.01,0.0,meteohub,2013-04-08 04:19:00,
2013-04-07 21:26:00,50.7,48.6,29.91,WSW,238,0.0,0.0,92,0.00,,,0.01,0.0,meteohub,2013-04-08 04:26:00,
2013-04-07 21:32:00,50.7,48.7,29.90,WSW,238,0.0,0.0,93,0.01,,,0.02,0.0,meteohub,2013-04-08 04:32:00,
2013-04-07 21:37:00,50.7,48.7,29.89,WSW,238,0.0,0.0,93,0.01,,,0.02,0.0,meteohub,2013-04-08 04:37:00,
2013-04-07 21:43:00,50.5,48.6,29.89,WSW,238,0.0,0.0,93,0.01,,,0.02,0.0,meteohub,2013-04-08 04:43:00,
2013-04-07 21:49:00,50.4,48.4,29.88,WSW,240,0.0,0.0,93,0.01,,,0.02,0.0,meteohub,2013-04-08 04:49:00,
2013-04-07 21:55:00,50.2,48.6,29.88,WSW,241,0.0,0.0,94,0.01,,,0.02,0.0,meteohub,2013-04-08 04:55:00,
2013-04-07 22:00:00,50.4,48.7,29.87,WSW,241,0.0,0.0,94,0.01,,,0.02,0.0,meteohub,2013-04-08 05:00:00,
2013-04-07 22:06:00,50.4,48.7,29.87,WSW,241,0.0,0.0,94,0.01,,,0.03,0.0,meteohub,2013-04-08 05:06:00,
2013-04-07 22:12:00,50.4,48.7,29.86,WSW,241,0.0,0.0,94,0.02,,,0.03,0.0,meteohub,2013-04-08 05:12:00,
2013-04-07 22:17:00,50.4,48.7,29.86,WSW,240,0.0,0.0,94,0.02,,,0.03,0.0,meteohub,2013-04-08 05:17:00,
2013-04-07 22:24:00,50.2,48.6,29.86,SSW,212,0.0,0.0,94,0.02,,,0.03,0.0,meteohub,2013-04-08 05:24:00,
2013-04-07 22:30:00,50.2,48.7,29.86,NE,36,1.0,0.0,95,0.02,,,0.03,0.0,meteohub,2013-04-08 05:30:00,
2013-04-07 22:36:00,50.4,48.9,29.85,ESE,117,0.0,4.0,95,0.01,,,0.04,0.0,meteohub,2013-04-08 05:36:00,
2013-04-07 22:42:00,50.5,49.1,29.85,SSW,196,4.0,6.0,95,0.02,,,0.04,0.0,meteohub,2013-04-08 05:42:00,
2013-04-07 22:47:00,50.9,49.5,29.85,South,185,0.0,10.0,95,0.02,,,0.04,0.0,meteohub,2013-04-08 05:47:00,
2013-04-07 22:52:00,51.3,49.8,29.84,SSE,162,2.0,10.0,95,0.02,,,0.04,0.0,meteohub,2013-04-08 05:52:00,
2013-04-07 22:57:00,51.3,49.3,29.84,WSW,252,4.0,10.0,93,0.02,,,0.04,0.0,meteohub,2013-04-08 05:57:00,
2013-04-07 23:04:00,51.3,48.7,29.84,SSE,165,8.0,10.0,91,0.01,,,0.04,0.0,meteohub,2013-04-08 06:04:00,
2013-04-07 23:10:00,50.9,47.8,29.84,SSW,195,2.0,10.0,89,0.01,,,0.04,0.0,meteohub,2013-04-08 06:10:00,
2013-04-07 23:17:00,50.5,47.5,29.84,South,173,2.0,13.0,89,0.02,,,0.05,0.0,meteohub,2013-04-08 06:17:00,
2013-04-07 23:22:00,50.2,47.1,29.85,SSW,194,1.0,13.0,89,0.02,,,0.05,0.0,meteohub,2013-04-08 06:22:00,
2013-04-07 23:27:00,49.6,46.6,29.85,WSW,251,4.0,13.0,89,0.02,,,0.05,0.0,meteohub,2013-04-08 06:27:00,
2013-04-07 23:34:00,49.6,46.2,29.85,SW,217,4.0,10.0,88,0.02,,,0.05,0.0,meteohub,2013-04-08 06:34:00,
2013-04-07 23:41:00,49.5,46.0,29.85,SE,128,4.0,10.0,88,0.01,,,0.05,0.0,meteohub,2013-04-08 06:41:00,
2013-04-07 23:47:00,49.3,46.2,29.85,SSE,158,0.0,15.0,89,0.01,,,0.05,0.0,meteohub,2013-04-08 06:47:00,
2013-04-07 23:52:00,49.1,45.7,29.85,South,173,0.0,15.0,88,0.01,,,0.06,0.0,meteohub,2013-04-08 06:52:00,
2013-04-07 23:57:00,48.9,45.1,29.84,SW,221,0.0,15.0,87,0.02,,,0.06,0.0,meteohub,2013-04-08 06:57:00,